createdAt,value
2023-05-02T00:02:16.635Z,1.40
2023-05-02T00:04:43.503Z,1.38
2023-05-02T00:07:11.281Z,1.25
2023-05-02T00:09:38.255Z,1.75
2023-05-02T00:12:04.878Z,1.23
2023-05-02T00:14:39.110Z,1.40
2023-05-02T00:17:05.711Z,1.48
2023-05-02T00:19:32.324Z,1.38
2023-05-02T00:21:58.884Z,1.45
2023-05-02T00:24:26.885Z,1.30
2023-05-02T00:26:53.474Z,1.45
2023-05-02T00:29:19.964Z,1.27
2023-05-02T00:31:46.572Z,1.65
2023-05-02T00:34:13.062Z,1.67
2023-05-02T00:36:39.811Z,1.30
2023-05-02T00:39:06.384Z,1.30
2023-05-02T00:41:32.902Z,1.38
2023-05-02T00:43:59.596Z,1.10
2023-05-02T00:46:26.358Z,1.10
2023-05-02T00:48:53.154Z,2.00
2023-05-02T00:51:19.777Z,1.77
2023-05-02T00:53:46.473Z,1.75
2023-05-02T00:56:12.972Z,1.70
2023-05-02T00:58:41.389Z,1.75
2023-05-02T01:01:38.119Z,1.75
2023-05-02T01:04:19.687Z,1.75
2023-05-02T01:07:14.706Z,1.50
2023-05-02T01:09:53.882Z,1.35
2023-05-02T01:12:41.744Z,1.48
2023-05-02T01:15:12.391Z,1.70
2023-05-02T01:17:40.321Z,1.77
2023-05-02T01:20:12.232Z,2.10
2023-05-02T01:22:41.427Z,2.35
2023-05-02T01:25:17.020Z,1.42
2023-05-02T01:28:08.465Z,1.35
2023-05-02T01:30:37.800Z,1.83
2023-05-02T01:33:06.202Z,1.77
2023-05-02T01:35:35.220Z,1.90
2023-05-02T01:38:03.470Z,1.35
2023-05-02T01:40:30.637Z,2.00
2023-05-02T01:42:59.087Z,1.77
2023-05-02T01:45:26.439Z,2.00
2023-05-02T01:47:54.832Z,1.70
2023-05-02T01:50:25.189Z,3.15
2023-05-02T01:52:54.092Z,2.33
2023-05-02T01:55:21.445Z,1.98
2023-05-02T01:57:50.738Z,1.77
2023-05-02T02:00:18.769Z,1.65
2023-05-02T02:02:47.683Z,2.58
2023-05-02T02:05:15.255Z,1.48
2023-05-02T02:07:43.655Z,1.95
2023-05-02T02:10:10.417Z,1.90
2023-05-02T02:12:43.920Z,2.72
2023-05-02T02:15:19.675Z,2.27
2023-05-02T02:17:50.485Z,1.58
2023-05-02T02:20:18.828Z,1.90
2023-05-02T02:22:46.557Z,2.25
2023-05-02T02:25:16.132Z,1.67
2023-05-02T02:27:43.744Z,1.70
2023-05-02T02:30:11.148Z,2.45
2023-05-02T02:32:37.888Z,2.38
2023-05-02T02:35:05.463Z,2.03
2023-05-02T02:37:59.472Z,1.67
2023-05-02T02:40:34.644Z,2.42
2023-05-02T02:43:04.389Z,1.85
2023-05-02T02:45:40.268Z,1.92
2023-05-02T02:48:09.682Z,1.67
2023-05-02T02:51:00.917Z,2.17
2023-05-02T02:53:45.847Z,1.77
2023-05-02T02:56:17.058Z,1.75
2023-05-02T02:58:51.171Z,2.03
2023-05-02T03:01:20.491Z,1.67
2023-05-02T03:03:49.143Z,1.90
2023-05-02T03:06:18.960Z,2.17
2023-05-02T03:08:46.319Z,1.95
2023-05-02T03:11:12.917Z,2.20
2023-05-02T03:13:39.493Z,2.17
2023-05-02T03:16:32.270Z,1.92
2023-05-02T03:18:59.146Z,2.08
2023-05-02T03:21:25.819Z,2.55
2023-05-02T03:23:52.660Z,2.53
2023-05-02T03:26:19.329Z,3.20
2023-05-02T03:28:48.882Z,2.50
2023-05-02T03:31:15.618Z,2.38
2023-05-02T03:33:42.109Z,2.38
2023-05-02T03:36:08.783Z,2.35
2023-05-02T03:38:35.485Z,3.05
2023-05-02T03:41:03.090Z,2.60
2023-05-02T03:43:30.474Z,3.30
2023-05-02T03:45:57.024Z,2.63
2023-05-02T03:48:23.932Z,2.83
2023-05-02T03:50:51.011Z,3.38
2023-05-02T03:53:17.526Z,3.08
2023-05-02T03:55:44.021Z,2.90
2023-05-02T03:58:11.244Z,3.25
2023-05-02T04:00:38.618Z,2.53
2023-05-02T04:03:05.278Z,3.13
2023-05-02T04:05:31.997Z,2.47
2023-05-02T04:07:58.689Z,2.42
2023-05-02T04:10:25.532Z,2.40
2023-05-02T04:12:52.008Z,2.78
2023-05-02T04:15:18.507Z,2.67
2023-05-02T04:17:45.145Z,2.75
2023-05-02T04:20:11.927Z,2.55
2023-05-02T04:22:41.456Z,2.78
2023-05-02T04:25:08.403Z,2.65
2023-05-02T04:27:34.960Z,2.60
2023-05-02T04:30:01.783Z,2.40
2023-05-02T04:32:28.616Z,2.80
2023-05-02T04:34:55.957Z,3.00
2023-05-02T04:37:23.133Z,2.70
2023-05-02T04:39:50.061Z,2.88
2023-05-02T04:42:16.589Z,3.17
2023-05-02T04:44:43.093Z,3.00
2023-05-02T04:47:09.679Z,3.20
2023-05-02T04:49:36.283Z,3.17
2023-05-02T04:52:03.081Z,2.58
2023-05-02T04:54:29.698Z,2.55
2023-05-02T04:56:56.875Z,3.15
2023-05-02T04:59:24.204Z,2.38
2023-05-02T05:01:50.808Z,3.60
2023-05-02T05:04:17.541Z,2.58
2023-05-02T05:06:44.145Z,2.50
2023-05-02T05:09:10.774Z,2.30
2023-05-02T05:11:38.651Z,2.80
2023-05-02T05:14:05.417Z,2.55
2023-05-02T05:16:32.163Z,2.40
2023-05-02T05:18:58.692Z,2.58
2023-05-02T05:21:25.587Z,2.83
2023-05-02T05:23:52.131Z,2.92
2023-05-02T05:26:18.668Z,2.60
2023-05-02T05:28:45.366Z,4.03
2023-05-02T05:31:15.966Z,2.72
2023-05-02T05:33:43.862Z,3.00
2023-05-02T05:36:12.485Z,3.63
2023-05-02T05:38:39.186Z,2.50
2023-05-02T05:41:07.912Z,3.25
2023-05-02T05:43:36.570Z,2.85
2023-05-02T05:46:04.586Z,2.67
2023-05-02T05:48:31.432Z,2.97
2023-05-02T05:50:57.940Z,2.42
2023-05-02T05:53:24.523Z,3.78
2023-05-02T05:55:51.113Z,2.95
2023-05-02T05:58:17.938Z,2.97
2023-05-02T06:00:44.488Z,3.22
2023-05-02T06:03:11.475Z,2.58
2023-05-02T06:05:38.173Z,3.28
2023-05-02T06:08:04.877Z,3.47
2023-05-02T06:10:32.167Z,3.95
2023-05-02T06:12:59.305Z,3.33
2023-05-02T06:15:25.827Z,2.38
2023-05-02T06:17:52.769Z,2.75
2023-05-02T06:20:19.428Z,2.50
2023-05-02T06:22:46.197Z,3.20
2023-05-02T06:25:12.754Z,2.67
2023-05-02T06:27:39.268Z,2.97
2023-05-02T06:30:06.615Z,3.03
2023-05-02T06:32:33.234Z,3.75
2023-05-02T06:35:00.234Z,3.15
2023-05-02T06:37:26.889Z,3.28
2023-05-02T06:39:53.497Z,3.22
2023-05-02T06:42:20.050Z,3.13
2023-05-02T06:44:46.584Z,3.72
2023-05-02T06:47:13.355Z,4.53
2023-05-02T06:49:39.970Z,3.55
2023-05-02T06:52:06.492Z,3.60
2023-05-02T06:54:33.054Z,3.38
2023-05-02T06:57:00.425Z,3.50
2023-05-02T06:59:26.909Z,4.22
2023-05-02T07:01:53.498Z,4.07
2023-05-02T07:04:20.057Z,3.90
2023-05-02T07:06:47.138Z,3.67
2023-05-02T07:09:13.705Z,3.50
2023-05-02T07:11:40.277Z,3.63
2023-05-02T07:14:06.825Z,3.55
2023-05-02T07:16:33.399Z,3.50
2023-05-02T07:19:00.229Z,3.83
2023-05-02T07:21:26.798Z,4.03
2023-05-02T07:23:55.549Z,3.08
2023-05-02T07:26:23.472Z,3.88
2023-05-02T07:28:50.090Z,2.88
2023-05-02T07:31:18.820Z,3.20
2023-05-02T07:33:45.595Z,2.88
2023-05-02T07:36:12.163Z,3.10
2023-05-02T07:38:38.733Z,2.10
2023-05-02T07:41:05.306Z,2.20
2023-05-02T07:43:32.255Z,1.67
2023-05-02T07:45:58.921Z,2.05
2023-05-02T07:48:27.623Z,2.05
2023-05-02T07:50:54.480Z,2.00
2023-05-02T07:53:20.997Z,3.28
2023-05-02T07:55:47.766Z,2.33
2023-05-02T07:58:14.276Z,2.47
2023-05-02T08:00:40.884Z,2.50
2023-05-02T08:03:07.800Z,1.85
2023-05-02T08:05:34.561Z,2.45
2023-05-02T08:08:01.951Z,2.28
2023-05-02T08:10:28.594Z,3.15
2023-05-02T08:12:55.189Z,2.22
2023-05-02T08:15:21.706Z,2.53
2023-05-02T08:17:48.316Z,2.33
2023-05-02T08:20:14.859Z,2.15
2023-05-02T08:22:41.688Z,2.03
2023-05-02T08:25:08.523Z,2.45
2023-05-02T08:27:35.743Z,2.50
2023-05-02T08:30:02.544Z,2.30
2023-05-02T08:32:30.188Z,1.92
2023-05-02T08:34:59.728Z,2.03
2023-05-02T08:37:26.393Z,2.28
2023-05-02T08:39:52.939Z,2.17
2023-05-02T08:42:20.877Z,2.28
2023-05-02T08:44:49.193Z,2.00
2023-05-02T08:47:18.764Z,2.40
2023-05-02T08:49:46.569Z,2.15
2023-05-02T08:52:14.540Z,2.25
2023-05-02T08:54:41.755Z,2.15
2023-05-02T08:57:08.840Z,2.10
2023-05-02T08:59:35.416Z,1.83
2023-05-02T09:02:17.480Z,1.92
2023-05-02T09:04:49.626Z,2.10
2023-05-02T09:07:16.206Z,2.28
2023-05-02T09:09:42.801Z,1.55
2023-05-02T09:12:10.272Z,1.42
2023-05-02T09:14:36.882Z,2.10
2023-05-02T09:17:03.850Z,1.67
2023-05-02T09:19:31.083Z,1.83
2023-05-02T09:22:01.719Z,1.80
2023-05-02T09:24:29.614Z,1.20
2023-05-02T09:27:04.208Z,1.23
2023-05-02T09:29:36.444Z,1.40
2023-05-02T09:32:04.368Z,2.05
2023-05-02T09:34:31.526Z,1.38
2023-05-02T09:36:58.409Z,1.45
2023-05-02T09:39:26.798Z,1.35
2023-05-02T09:41:53.520Z,2.13
2023-05-02T09:44:22.157Z,1.63
2023-05-02T09:46:49.622Z,1.58
2023-05-02T09:49:19.682Z,1.25
2023-05-02T09:51:47.628Z,1.73
2023-05-02T09:54:15.143Z,1.40
2023-05-02T09:56:56.816Z,1.42
2023-05-02T09:59:24.753Z,1.25
2023-05-02T10:02:12.030Z,1.30
2023-05-02T10:04:39.418Z,1.38
2023-05-02T10:07:10.374Z,1.58
2023-05-02T10:09:40.378Z,1.48
2023-05-02T10:12:08.377Z,1.13
2023-05-02T10:14:53.292Z,0.88
2023-05-02T10:17:31.086Z,1.33
2023-05-02T10:20:01.473Z,0.90
2023-05-02T10:22:28.608Z,1.02
2023-05-02T10:24:58.061Z,0.73
2023-05-02T10:27:25.723Z,0.73
2023-05-02T10:29:52.897Z,0.80
2023-05-02T10:32:22.630Z,1.35
2023-05-02T10:34:51.810Z,0.85
2023-05-02T10:37:19.352Z,0.75
2023-05-02T10:39:46.155Z,0.88
2023-05-02T10:42:14.628Z,1.00
2023-05-02T10:44:41.585Z,0.85
2023-05-02T10:47:27.185Z,0.77
2023-05-02T10:50:01.927Z,0.75
2023-05-02T10:52:35.550Z,0.50
2023-05-02T10:55:22.517Z,0.93
2023-05-02T10:57:58.386Z,0.65
2023-05-02T11:00:29.531Z,0.68
2023-05-02T11:02:56.769Z,0.60
2023-05-02T11:05:24.657Z,0.90
2023-05-02T11:08:19.345Z,0.70
2023-05-02T11:10:47.315Z,0.70
2023-05-02T11:13:13.932Z,0.68
2023-05-02T11:15:40.468Z,0.80
2023-05-02T11:18:12.714Z,0.60
2023-05-02T11:20:43.649Z,0.80
2023-05-02T11:23:16.846Z,0.50
2023-05-02T11:25:45.889Z,0.55
2023-05-02T11:28:37.193Z,1.10
2023-05-02T11:31:08.628Z,0.70
2023-05-02T11:33:35.132Z,0.88
2023-05-02T11:36:01.801Z,0.70
2023-05-02T11:38:36.748Z,0.60
2023-05-02T11:41:04.368Z,0.90
2023-05-02T11:43:32.140Z,0.60
2023-05-02T11:46:00.761Z,0.80
2023-05-02T11:48:27.831Z,0.70
2023-05-02T11:50:58.413Z,1.10
2023-05-02T11:53:28.892Z,0.60
2023-05-02T11:55:57.468Z,0.70
2023-05-02T11:58:26.755Z,0.50
2023-05-02T12:00:53.939Z,0.52
2023-05-02T12:03:22.621Z,0.65
2023-05-02T12:05:50.109Z,1.00
2023-05-02T12:08:27.932Z,0.60
2023-05-02T12:10:56.060Z,1.00
2023-05-02T12:13:24.944Z,0.65
2023-05-02T12:15:53.285Z,0.43
2023-05-02T12:18:25.181Z,0.73
2023-05-02T12:20:52.847Z,0.55
2023-05-02T12:23:24.567Z,0.43
2023-05-02T12:25:51.055Z,0.50
2023-05-02T12:28:20.031Z,0.52
2023-05-02T12:30:51.328Z,0.50
2023-05-02T12:47:45.119Z,0.80
2023-05-02T12:50:11.819Z,0.60
2023-05-02T12:52:49.777Z,0.70
2023-05-02T12:55:21.345Z,0.60
2023-05-02T12:57:48.438Z,0.65
2023-05-02T13:00:18.329Z,0.52
2023-05-02T13:02:44.903Z,0.40
2023-05-02T13:05:15.648Z,0.43
2023-05-02T13:07:42.210Z,0.50
2023-05-02T13:10:09.606Z,0.75
2023-05-02T13:12:38.292Z,0.40
2023-05-02T13:15:06.609Z,0.38
2023-05-02T13:17:34.188Z,0.50
2023-05-02T13:20:02.420Z,0.45
2023-05-02T13:22:29.438Z,0.40
2023-05-02T13:24:56.034Z,0.52
2023-05-02T13:27:26.120Z,0.50
2023-05-02T13:29:52.714Z,0.60
2023-05-02T13:32:19.763Z,0.50
2023-05-02T13:34:46.400Z,0.47
2023-05-02T13:37:13.218Z,0.70
2023-05-02T13:39:39.919Z,0.47
2023-05-02T13:42:06.730Z,0.60
2023-05-02T13:44:33.491Z,0.60
2023-05-02T13:47:00.090Z,0.47
2023-05-02T13:49:26.978Z,0.45
2023-05-02T13:51:53.725Z,0.52
2023-05-02T13:54:20.890Z,0.40
2023-05-02T13:56:47.455Z,0.60
2023-05-02T13:59:14.322Z,0.40
2023-05-02T14:01:41.193Z,0.80
2023-05-02T14:04:09.002Z,0.55
2023-05-02T14:06:36.151Z,0.60
2023-05-02T14:09:03.878Z,0.40
2023-05-02T14:11:30.768Z,0.35
2023-05-02T14:13:58.360Z,0.50
2023-05-02T14:16:25.185Z,0.45
2023-05-02T14:18:51.755Z,0.45
2023-05-02T14:21:18.365Z,0.40
2023-05-02T14:23:44.902Z,0.60
2023-05-02T14:26:11.508Z,0.68
2023-05-02T14:28:39.054Z,0.50
2023-05-02T14:31:07.866Z,0.50
2023-05-02T14:33:34.549Z,0.50
2023-05-02T14:36:01.401Z,0.55
2023-05-02T14:38:27.930Z,0.73
2023-05-02T14:40:55.134Z,0.40
2023-05-02T14:43:21.740Z,0.88
2023-05-02T14:45:48.330Z,0.40
2023-05-02T14:48:17.038Z,0.40
2023-05-02T14:50:44.196Z,0.55
2023-05-02T14:53:11.876Z,0.55
2023-05-02T14:55:39.983Z,0.43
2023-05-02T14:58:08.993Z,0.50
2023-05-02T15:00:37.944Z,0.40
2023-05-02T15:03:07.670Z,0.30
2023-05-02T15:05:36.713Z,0.57
2023-05-02T15:08:03.272Z,0.32
2023-05-02T15:10:29.762Z,0.30
2023-05-02T15:12:56.500Z,0.40
2023-05-02T15:15:25.141Z,0.40
2023-05-02T15:17:52.907Z,0.30
2023-05-02T15:20:19.934Z,0.40
2023-05-02T15:22:46.506Z,0.30
2023-05-02T15:25:13.035Z,0.40
2023-05-02T15:27:39.972Z,0.73
2023-05-02T15:30:07.420Z,0.50
2023-05-02T15:32:34.061Z,0.40
2023-05-02T15:35:00.831Z,0.40
2023-05-02T15:37:27.498Z,0.40
2023-05-02T15:39:54.085Z,0.20
2023-05-02T15:42:20.724Z,0.40
2023-05-02T15:44:47.235Z,0.30
2023-05-02T15:47:13.828Z,0.40
2023-05-02T15:49:41.155Z,0.20
2023-05-02T15:52:07.751Z,0.40
2023-05-02T15:54:34.521Z,0.32
2023-05-02T15:57:02.539Z,0.47
2023-05-02T15:59:29.289Z,0.50
2023-05-02T16:01:56.254Z,0.30
2023-05-02T16:04:22.957Z,0.43
2023-05-02T16:06:49.838Z,0.30
2023-05-02T16:09:16.558Z,0.40
2023-05-02T16:11:44.444Z,0.50
2023-05-02T16:14:11.319Z,0.30
2023-05-02T16:16:37.985Z,0.40
2023-05-02T16:19:04.703Z,0.40
2023-05-02T16:21:31.720Z,0.40
2023-05-02T16:23:58.350Z,0.40
2023-05-02T16:26:24.841Z,0.40
2023-05-02T16:28:51.752Z,0.45
2023-05-02T16:31:18.345Z,0.30
2023-05-02T16:33:44.949Z,0.30
2023-05-02T16:36:11.618Z,0.30
2023-05-02T16:38:38.186Z,0.30
2023-05-02T16:41:07.098Z,0.40
2023-05-02T16:43:33.862Z,0.30
2023-05-02T16:46:05.162Z,0.40
2023-05-02T16:48:32.277Z,0.73
2023-05-02T16:51:01.076Z,0.28
2023-05-02T16:53:30.551Z,0.38
2023-05-02T16:55:57.279Z,0.50
2023-05-02T16:58:25.048Z,0.30
2023-05-02T17:00:52.008Z,0.30
2023-05-02T17:03:18.819Z,0.32
2023-05-02T17:05:45.745Z,0.30
2023-05-02T17:08:12.350Z,0.50
2023-05-02T17:10:39.050Z,0.30
2023-05-02T17:13:06.668Z,0.30
2023-05-02T17:15:38.497Z,0.30
2023-05-02T17:18:05.322Z,0.40
2023-05-02T17:20:32.296Z,0.65
2023-05-02T17:23:00.641Z,0.30
2023-05-02T17:25:27.218Z,0.40
2023-05-02T17:27:53.896Z,0.40
2023-05-02T17:30:20.528Z,0.40
2023-05-02T17:32:48.038Z,0.40
2023-05-02T17:35:14.716Z,0.35
2023-05-02T17:37:41.393Z,0.32
2023-05-02T17:40:08.565Z,0.70
2023-05-02T17:42:35.329Z,0.77
2023-05-02T17:45:02.553Z,0.20
2023-05-02T17:47:29.260Z,0.55
2023-05-02T17:49:55.986Z,0.30
2023-05-02T17:52:22.697Z,0.30
2023-05-02T17:54:52.200Z,0.55
2023-05-02T17:57:19.712Z,0.60
2023-05-02T17:59:46.353Z,0.50
2023-05-02T18:02:12.905Z,0.32
2023-05-02T18:04:39.413Z,0.40
2023-05-02T18:07:06.350Z,0.50
2023-05-02T18:09:33.001Z,0.60
2023-05-02T18:12:04.316Z,0.43
2023-05-02T18:14:30.994Z,0.40
2023-05-02T18:16:57.730Z,0.40
2023-05-02T18:19:24.372Z,0.40
2023-05-02T18:21:51.111Z,0.50
2023-05-02T18:24:17.716Z,0.50
2023-05-02T18:26:44.364Z,0.50
2023-05-02T18:29:10.836Z,0.68
2023-05-02T18:31:40.309Z,0.50
2023-05-02T18:34:07.063Z,0.40
2023-05-02T18:36:33.691Z,1.38
2023-05-02T18:39:00.420Z,1.08
2023-05-02T18:41:27.009Z,0.50
2023-05-02T18:43:54.606Z,0.55
2023-05-02T18:46:21.913Z,0.60
2023-05-02T18:48:48.999Z,0.60
2023-05-02T18:51:15.882Z,0.50
2023-05-02T18:53:42.400Z,0.70
2023-05-02T18:56:13.825Z,0.60
2023-05-02T18:58:41.593Z,0.85
2023-05-02T19:01:15.255Z,0.80
2023-05-02T19:03:45.630Z,1.20
2023-05-02T19:06:13.290Z,0.63
2023-05-02T19:08:42.986Z,0.60
2023-05-02T19:11:09.750Z,0.70
2023-05-02T19:13:36.331Z,0.63
2023-05-02T19:16:03.126Z,0.60
2023-05-02T19:18:29.707Z,0.45
2023-05-02T19:20:57.270Z,0.80
2023-05-02T19:23:24.549Z,0.70
2023-05-02T19:25:51.147Z,0.60
2023-05-02T19:28:17.755Z,0.50
2023-05-02T19:30:44.739Z,0.77
2023-05-02T19:33:11.770Z,0.90
2023-05-02T19:35:38.754Z,0.70
2023-05-02T19:38:05.359Z,0.82
2023-05-02T19:40:31.917Z,0.80
2023-05-02T19:42:58.414Z,0.85
2023-05-02T19:45:25.559Z,0.85
2023-05-02T19:47:52.659Z,1.10
2023-05-02T19:50:19.339Z,1.00
2023-05-02T19:52:45.941Z,0.82
2023-05-02T19:55:13.181Z,1.38
2023-05-02T19:57:40.852Z,1.10
2023-05-02T20:00:08.328Z,1.20
2023-05-02T20:02:35.043Z,1.35
2023-05-02T20:05:01.688Z,1.30
2023-05-02T20:07:28.425Z,1.77
2023-05-02T20:09:54.934Z,1.40
2023-05-02T20:12:21.450Z,1.80
2023-05-02T20:14:48.000Z,3.13
2023-05-02T20:17:14.562Z,3.63
2023-05-02T20:19:41.063Z,2.15
2023-05-02T20:22:07.843Z,2.88
2023-05-02T20:24:34.344Z,1.70
2023-05-02T20:27:01.314Z,1.75
2023-05-02T20:29:28.456Z,1.58
2023-05-02T20:31:56.541Z,1.73
2023-05-02T20:34:23.551Z,1.23
2023-05-02T20:36:50.224Z,1.15
2023-05-02T20:39:20.391Z,1.10
2023-05-02T20:41:49.607Z,1.08
2023-05-02T20:44:22.420Z,1.98
2023-05-02T20:46:49.181Z,2.33
2023-05-02T20:49:15.702Z,1.77
2023-05-02T20:51:42.256Z,1.90
2023-05-02T20:54:08.798Z,3.90
2023-05-02T20:56:35.466Z,3.60
2023-05-02T20:59:01.965Z,4.88
2023-05-02T21:01:28.819Z,4.70
2023-05-02T21:03:57.189Z,4.40
2023-05-02T21:06:24.110Z,3.80
2023-05-02T21:08:51.098Z,3.35
2023-05-02T21:11:17.655Z,4.32
2023-05-02T21:13:44.203Z,5.05
2023-05-02T21:16:17.995Z,5.47
2023-05-02T21:18:45.281Z,5.75
2023-05-02T21:21:11.932Z,5.65
2023-05-02T21:23:38.931Z,5.38
2023-05-02T21:26:06.142Z,5.05
2023-05-02T21:28:32.637Z,5.10
2023-05-02T21:31:01.699Z,4.25
2023-05-02T21:33:28.249Z,5.32
2023-05-02T21:35:58.392Z,9.05
2023-05-02T21:38:26.036Z,5.40
2023-05-02T21:40:53.296Z,4.68
2023-05-02T21:43:19.999Z,3.92
2023-05-02T21:45:47.919Z,4.32
2023-05-02T21:48:15.259Z,4.20
2023-05-02T21:50:43.253Z,2.83
2023-05-02T21:53:10.708Z,3.08
2023-05-02T21:55:39.165Z,4.57
2023-05-02T21:58:07.398Z,4.82
2023-05-02T22:00:34.038Z,3.30
2023-05-02T22:03:07.785Z,3.65
2023-05-02T22:05:41.870Z,2.97
2023-05-02T22:08:10.057Z,2.60
2023-05-02T22:10:41.862Z,2.90
2023-05-02T22:13:12.209Z,2.30
2023-05-02T22:15:47.786Z,2.60
2023-05-02T22:18:16.804Z,3.40
2023-05-02T22:20:45.060Z,3.65
2023-05-02T22:23:12.306Z,3.40
2023-05-02T22:25:44.337Z,4.20
2023-05-02T22:28:11.476Z,5.82
2023-05-02T22:30:39.157Z,13.75
2023-05-02T22:33:07.410Z,20.38
2023-05-02T22:35:34.402Z,26.17
2023-05-02T22:38:02.198Z,25.15
2023-05-02T22:40:31.452Z,25.23
2023-05-02T22:42:58.938Z,3.95
2023-05-02T22:45:26.951Z,2.47
2023-05-02T22:47:53.778Z,1.75
2023-05-02T22:50:21.463Z,1.50
2023-05-02T22:52:49.002Z,2.00
2023-05-02T22:55:15.724Z,1.52
2023-05-02T22:57:42.800Z,1.73
2023-05-02T23:00:10.646Z,1.70
2023-05-02T23:02:37.638Z,2.30
2023-05-02T23:05:04.650Z,2.03
2023-05-02T23:07:31.200Z,2.25
2023-05-02T23:09:57.731Z,2.25
2023-05-02T23:12:24.321Z,2.35
2023-05-02T23:14:50.901Z,1.98
2023-05-02T23:17:17.531Z,1.75
2023-05-02T23:19:44.105Z,2.25
2023-05-02T23:22:10.670Z,2.13
2023-05-02T23:24:37.235Z,1.67
2023-05-02T23:27:03.836Z,1.80
2023-05-02T23:29:30.396Z,1.90
2023-05-02T23:31:57.066Z,1.77
2023-05-02T23:34:23.839Z,2.15
2023-05-02T23:36:51.849Z,2.33
2023-05-02T23:39:18.713Z,2.10
2023-05-02T23:41:45.319Z,2.38
2023-05-02T23:44:11.876Z,2.42
2023-05-02T23:46:39.077Z,2.28
2023-05-02T23:49:05.676Z,2.47
2023-05-02T23:51:32.287Z,2.42
2023-05-02T23:53:58.928Z,2.97
2023-05-02T23:56:26.122Z,3.40
2023-05-02T23:58:52.686Z,2.08
